TimeCST,TemperatureF,Dew PointF,Humidity,Sea Level PressureIn,VisibilityMPH,Wind Direction,Wind SpeedMPH,Gust SpeedMPH,PrecipitationIn,Events,Conditions,WindDirDegrees,DateUTC
12:55 AM,56.8,54.7,92,29.93,10.0,Calm,Calm,-,N/A,,Clear,0,2012-12-24 06:55:00
1:55 AM,55.0,53.4,94,29.91,10.0,NW,3.5,-,N/A,,Clear,310,2012-12-24 07:55:00
2:55 AM,55.4,52.9,91,29.91,10.0,NW,3.5,-,N/A,,Clear,320,2012-12-24 08:55:00
3:55 AM,53.4,52.2,95,29.91,10.0,NW,3.5,-,N/A,,Clear,320,2012-12-24 09:55:00
4:55 AM,49.5,48.9,98,29.90,10.0,NNW,6.9,-,N/A,,Clear,340,2012-12-24 10:55:00
5:55 AM,49.3,48.9,99,29.91,10.0,NNW,5.8,-,N/A,,Clear,330,2012-12-24 11:55:00
6:55 AM,48.7,47.5,95,29.95,10.0,East,11.5,-,N/A,,Clear,90,2012-12-24 12:55:00
7:55 AM,47.8,47.3,98,29.97,10.0,East,9.2,-,N/A,,Clear,80,2012-12-24 13:55:00
8:55 AM,50.4,46.0,85,29.98,10.0,ENE,9.2,-,N/A,,Clear,60,2012-12-24 14:55:00
9:55 AM,55.6,35.6,47,29.99,10.0,NE,11.5,-,N/A,,Clear,50,2012-12-24 15:55:00
10:55 AM,60.4,33.6,37,29.98,10.0,NE,9.2,-,N/A,,Clear,40,2012-12-24 16:55:00
11:55 AM,63.5,32.2,31,29.95,10.0,NE,10.4,-,N/A,,Clear,40,2012-12-24 17:55:00
12:55 PM,66.0,31.3,27,29.90,10.0,ENE,8.1,-,N/A,,Clear,60,2012-12-24 18:55:00
1:55 PM,68.2,30.0,24,29.86,10.0,ENE,9.2,-,N/A,,Clear,60,2012-12-24 19:55:00
2:55 PM,69.8,29.7,22,29.83,10.0,NE,9.2,-,N/A,,Clear,50,2012-12-24 20:55:00
3:55 PM,70.0,31.6,24,29.80,10.0,East,10.4,-,N/A,,Clear,80,2012-12-24 21:55:00
4:55 PM,67.5,32.7,28,29.79,10.0,East,8.1,-,N/A,,Clear,80,2012-12-24 22:55:00
5:55 PM,61.9,32.4,33,29.78,10.0,NE,4.6,-,N/A,,Clear,50,2012-12-24 23:55:00
6:55 PM,60.1,32.2,35,29.78,10.0,NE,4.6,-,N/A,,Clear,40,2012-12-25 00:55:00
7:55 PM,58.8,31.5,36,29.78,10.0,NE,4.6,-,N/A,,Clear,40,2012-12-25 01:55:00
8:53 PM,57.2,32.0,38,29.76,10.0,NE,4.6,-,N/A,,Mostly Cloudy,40,2012-12-25 02:53:00
8:55 PM,57.6,31.5,37,29.76,10.0,NE,4.6,-,N/A,,Mostly Cloudy,40,2012-12-25 02:55:00
9:10 PM,57.2,32.0,38,29.75,10.0,East,6.9,-,N/A,,Scattered Clouds,80,2012-12-25 03:10:00
9:30 PM,57.2,32.0,38,29.74,10.0,ENE,5.8,-,N/A,,Mostly Cloudy,70,2012-12-25 03:30:00
9:39 PM,57.2,32.0,38,29.75,10.0,NNE,4.6,-,N/A,,Mostly Cloudy,30,2012-12-25 03:39:00
9:46 PM,57.2,32.0,38,29.75,10.0,NNE,5.8,-,N/A,,Mostly Cloudy,30,2012-12-25 03:46:00
9:55 PM,58.3,32.0,37,29.74,10.0,NE,4.6,-,N/A,,Overcast,40,2012-12-25 03:55:00
9:59 PM,59.0,32.0,36,29.74,10.0,NE,5.8,-,N/A,,Overcast,40,2012-12-25 03:59:00
10:28 PM,60.8,33.8,36,29.75,10.0,Calm,Calm,-,N/A,,Overcast,0,2012-12-25 04:28:00
10:55 PM,61.0,36.5,40,29.75,10.0,NE,3.5,-,N/A,,Overcast,50,2012-12-25 04:55:00
11:49 PM,60.8,39.2,45,29.70,10.0,ENE,4.6,-,N/A,,Overcast,60,2012-12-25 05:49:00
11:55 PM,61.0,40.3,46,29.71,10.0,NNE,4.6,-,N/A,,Overcast,30,2012-12-25 05:55:00
11:56 PM,60.8,41.0,48,29.71,10.0,NNE,3.5,-,N/A,,Overcast,20,2012-12-25 05:56:00